Time;durP1;ratioP1;P1;durP2;ratioP2;P2;SDS_P1;SDS_P2;PMS_P1;PMS_P2;Temp;Humidity;BMP_temperature;BMP_pressure;BME280_temperature;BME280_humidity;BME280_pressure;Samples;Min_cycle;Max_cycle;Signal;HPM_P1;HPM_P2
2021/09/04 00:18:11;;;;;;;3.22;1.87;;;;;;;;;;4160079;34;20244;-66
2021/09/04 00:20:42;;;;;;;2.75;1.90;;;;;;;;;;4164325;34;20576;-65
2021/09/04 00:23:08;;;;;;;2.10;1.90;;;;;;;;;;4164621;34;20530;-66
2021/09/04 00:25:34;;;;;;;2.83;2.05;;;;;;;;;;4163728;34;20518;-64
2021/09/04 00:28:01;;;;;;;2.70;1.90;;;;;;;;;;4153266;34;20125;-64
2021/09/04 00:30:32;;;;;;;2.05;1.80;;;;;;;;;;4175883;34;20110;-66
2021/09/04 00:33:00;;;;;;;2.03;1.58;;;;;;;;;;4141959;34;20152;-65
2021/09/04 00:35:26;;;;;;;2.50;1.95;;;;;;;;;;4175659;34;20179;-65
2021/09/04 00:37:52;;;;;;;4.53;2.15;;;;;;;;;;4164298;34;20199;-65
2021/09/04 00:40:18;;;;;;;2.78;2.00;;;;;;;;;;4175612;34;20185;-64
2021/09/04 00:42:44;;;;;;;3.90;1.90;;;;;;;;;;4175383;34;20245;-66
2021/09/04 00:45:10;;;;;;;1.95;1.75;;;;;;;;;;4175392;34;20142;-64
2021/09/04 00:47:36;;;;;;;3.72;2.08;;;;;;;;;;4175431;34;20102;-67
2021/09/04 00:50:04;;;;;;;2.75;2.10;;;;;;;;;;4175750;34;20098;-66
2021/09/04 00:52:30;;;;;;;5.07;1.83;;;;;;;;;;4174715;34;20531;-64
2021/09/04 00:54:56;;;;;;;2.55;1.90;;;;;;;;;;4163675;34;20602;-66
2021/09/04 00:57:22;;;;;;;4.07;2.15;;;;;;;;;;4186601;34;20630;-67
2021/09/04 00:59:48;;;;;;;2.50;2.00;;;;;;;;;;4175515;34;20118;-64
2021/09/04 01:02:14;;;;;;;3.58;2.40;;;;;;;;;;4175330;34;20141;-65
2021/09/04 01:04:40;;;;;;;2.75;2.15;;;;;;;;;;4176979;34;20102;-64
2021/09/04 01:07:06;;;;;;;2.00;1.90;;;;;;;;;;4164303;34;20122;-65
2021/09/04 01:09:32;;;;;;;3.40;2.25;;;;;;;;;;4166545;34;20274;-66
2021/09/04 01:11:58;;;;;;;5.78;2.42;;;;;;;;;;4177370;34;20130;-66
2021/09/04 01:14:24;;;;;;;6.70;2.50;;;;;;;;;;4166403;34;20114;-66
2021/09/04 01:16:50;;;;;;;2.55;2.17;;;;;;;;;;4177254;34;20133;-65
2021/09/04 01:19:16;;;;;;;2.65;2.12;;;;;;;;;;4177527;34;20110;-65
2021/09/04 01:21:42;;;;;;;2.42;2.10;;;;;;;;;;4179427;34;20474;-65
2021/09/04 01:24:09;;;;;;;5.30;2.30;;;;;;;;;;4167637;34;20141;-64
2021/09/04 01:26:36;;;;;;;2.58;2.10;;;;;;;;;;4168477;34;20090;-67
2021/09/04 01:29:02;;;;;;;3.22;2.30;;;;;;;;;;4168562;34;20112;-64
2021/09/04 01:31:29;;;;;;;3.58;2.22;;;;;;;;;;4156934;34;20133;-64
2021/09/04 01:33:55;;;;;;;3.50;2.50;;;;;;;;;;4168432;34;20114;-66
2021/09/04 01:36:36;;;;;;;3.58;1.95;;;;;;;;;;4168312;34;20179;-66
2021/09/04 01:39:03;;;;;;;3.78;2.03;;;;;;;;;;4179664;34;20126;-65
2021/09/04 01:41:29;;;;;;;3.42;2.45;;;;;;;;;;4157001;34;20093;-64
2021/09/04 01:43:56;;;;;;;2.65;2.25;;;;;;;;;;4157075;34;20153;-66
2021/09/04 01:46:22;;;;;;;2.45;2.03;;;;;;;;;;4168286;34;20673;-64
2021/09/04 01:48:48;;;;;;;2.83;2.40;;;;;;;;;;4156985;34;20122;-65
2021/09/04 01:51:14;;;;;;;2.80;2.10;;;;;;;;;;4168225;34;20481;-66
2021/09/04 01:53:41;;;;;;;4.10;2.17;;;;;;;;;;4156660;34;20177;-64
2021/09/04 01:56:08;;;;;;;2.60;2.00;;;;;;;;;;4152647;34;20110;-67
2021/09/04 01:58:34;;;;;;;2.10;1.77;;;;;;;;;;4152324;34;20122;-66
2021/09/04 02:01:00;;;;;;;2.90;1.67;;;;;;;;;;4151626;34;20123;-64
2021/09/04 02:03:27;;;;;;;3.03;2.00;;;;;;;;;;4141141;34;20099;-64
2021/09/04 02:05:53;;;;;;;5.62;1.92;;;;;;;;;;4152211;34;20133;-66
2021/09/04 02:08:19;;;;;;;2.25;1.62;;;;;;;;;;4152165;34;20531;-65
2021/09/04 02:10:45;;;;;;;3.37;1.92;;;;;;;;;;4152210;34;20218;-66
2021/09/04 02:13:11;;;;;;;4.03;2.03;;;;;;;;;;4163300;34;20222;-66
2021/09/04 02:15:37;;;;;;;3.75;2.03;;;;;;;;;;4140567;34;20126;-65
2021/09/04 02:18:03;;;;;;;3.00;2.08;;;;;;;;;;4164513;34;20491;-64
2021/09/04 02:20:29;;;;;;;2.05;1.77;;;;;;;;;;4148745;34;20128;-64
2021/09/04 02:22:56;;;;;;;2.87;2.28;;;;;;;;;;4179002;34;20125;-64
2021/09/04 02:25:23;;;;;;;3.83;1.70;;;;;;;;;;4156420;34;20193;-65
2021/09/04 02:27:49;;;;;;;3.85;1.85;;;;;;;;;;4179216;34;20206;-65
2021/09/04 02:30:17;;;;;;;2.20;2.00;;;;;;;;;;4178966;34;20145;-65
2021/09/04 02:32:45;;;;;;;2.58;1.70;;;;;;;;;;4156421;34;20601;-65
2021/09/04 02:35:11;;;;;;;2.22;2.00;;;;;;;;;;4156521;34;20434;-66
2021/09/04 02:37:38;;;;;;;2.10;1.83;;;;;;;;;;4189222;34;20155;-65
2021/09/04 02:40:05;;;;;;;1.87;1.73;;;;;;;;;;4167700;34;20190;-65
2021/09/04 02:42:31;;;;;;;2.45;1.60;;;;;;;;;;4179135;34;20218;-66
2021/09/04 02:44:58;;;;;;;4.05;2.00;;;;;;;;;;4179251;34;20113;-66
2021/09/04 02:47:24;;;;;;;2.35;1.85;;;;;;;;;;4179312;34;20427;-65
2021/09/04 02:49:49;;;;;;;1.87;1.70;;;;;;;;;;4167656;34;20114;-65
2021/09/04 02:52:45;;;;;;;1.92;1.73;;;;;;;;;;4191772;34;20114;-65
2021/09/04 02:55:12;;;;;;;1.70;1.60;;;;;;;;;;4170616;34;20082;-64
2021/09/04 02:57:40;;;;;;;4.18;1.87;;;;;;;;;;4145417;34;20114;-64
2021/09/04 03:00:08;;;;;;;1.92;1.70;;;;;;;;;;4156346;34;20098;-65
2021/09/04 03:02:36;;;;;;;2.17;1.75;;;;;;;;;;4179393;34;20202;-66
2021/09/04 03:05:03;;;;;;;3.97;1.67;;;;;;;;;;4190683;34;20110;-65
2021/09/04 03:07:37;;;;;;;3.85;1.55;;;;;;;;;;4156845;34;20189;-65
2021/09/04 03:10:04;;;;;;;1.45;1.35;;;;;;;;;;4156403;34;20179;-65
2021/09/04 03:12:30;;;;;;;1.75;1.60;;;;;;;;;;4156546;34;20685;-64
2021/09/04 03:14:56;;;;;;;4.45;1.90;;;;;;;;;;4190063;34;20565;-66
2021/09/04 03:17:22;;;;;;;2.97;1.80;;;;;;;;;;4189723;34;20524;-64
2021/09/04 03:19:48;;;;;;;2.20;1.77;;;;;;;;;;4179113;34;20122;-64
2021/09/04 03:22:16;;;;;;;3.08;1.70;;;;;;;;;;4164569;34;20248;-65
2021/09/04 03:24:43;;;;;;;1.70;1.58;;;;;;;;;;4158438;34;20153;-64
2021/09/04 03:27:08;;;;;;;1.92;1.65;;;;;;;;;;4184337;34;20110;-66
2021/09/04 03:29:34;;;;;;;2.95;2.10;;;;;;;;;;4164955;34;20223;-64
2021/09/04 03:32:01;;;;;;;1.92;1.73;;;;;;;;;;4171897;34;20177;-65
2021/09/04 03:34:28;;;;;;;2.28;1.67;;;;;;;;;;4165239;34;20620;-65
2021/09/04 03:36:54;;;;;;;14.60;2.30;;;;;;;;;;4164693;34;20199;-67
2021/09/04 03:39:20;;;;;;;2.97;1.77;;;;;;;;;;4176005;34;20094;-65
2021/09/04 03:41:46;;;;;;;1.75;1.60;;;;;;;;;;4176398;34;20142;-67
2021/09/04 03:44:12;;;;;;;1.70;1.60;;;;;;;;;;4153506;34;20579;-67
2021/09/04 03:46:38;;;;;;;2.42;1.73;;;;;;;;;;4153740;34;20213;-67
2021/09/04 03:49:04;;;;;;;2.25;1.65;;;;;;;;;;4176338;34;20225;-66
2021/09/04 03:51:30;;;;;;;1.60;1.50;;;;;;;;;;4153665;34;20206;-65
2021/09/04 03:53:56;;;;;;;2.72;1.75;;;;;;;;;;4175773;34;20138;-65
2021/09/04 03:56:26;;;;;;;1.15;1.10;;;;;;;;;;4170310;34;20136;-64
2021/09/04 03:58:52;;;;;;;1.50;1.40;;;;;;;;;;4157105;34;20106;-66
2021/09/04 04:01:20;;;;;;;1.77;1.67;;;;;;;;;;4141388;34;20109;-65
2021/09/04 04:03:53;;;;;;;2.08;1.65;;;;;;;;;;4173948;34;20106;-64
2021/09/04 04:06:24;;;;;;;2.27;1.57;;;;;;;;;;4151707;34;20195;-65
2021/09/04 04:08:54;;;;;;;1.30;1.20;;;;;;;;;;4147136;34;20191;-65
2021/09/04 04:11:31;;;;;;;3.10;1.52;;;;;;;;;;4129077;34;20130;-66
2021/09/04 04:13:59;;;;;;;4.15;2.78;;;;;;;;;;4177030;34;20518;-65
2021/09/04 04:16:25;;;;;;;8.55;4.90;;;;;;;;;;4163545;34;20166;-66
2021/09/04 04:18:51;;;;;;;3.50;2.00;;;;;;;;;;4176036;34;20157;-66
2021/09/04 04:21:24;;;;;;;1.05;1.05;;;;;;;;;;4165535;34;20126;-65
2021/09/04 04:24:04;;;;;;;3.95;1.77;;;;;;;;;;4159217;34;20538;-65
2021/09/04 04:26:46;;;;;;;2.40;1.98;;;;;;;;;;4169654;34;20451;-66
2021/09/04 04:29:18;;;;;;;2.67;1.52;;;;;;;;;;4166692;34;20529;-65
2021/09/04 04:31:52;;;;;;;1.73;1.33;;;;;;;;;;4174976;34;20103;-65
2021/09/04 04:34:32;;;;;;;2.25;1.77;;;;;;;;;;4181973;34;20450;-65
2021/09/04 04:37:07;;;;;;;5.65;1.92;;;;;;;;;;4174220;34;20110;-63
2021/09/04 04:39:34;;;;;;;1.52;1.37;;;;;;;;;;4175940;34;20105;-63
2021/09/04 04:42:00;;;;;;;1.90;1.55;;;;;;;;;;4164387;34;20118;-63
2021/09/04 04:44:40;;;;;;;2.25;1.52;;;;;;;;;;4171757;34;20118;-63
2021/09/04 04:47:53;;;;;;;4.45;1.83;;;;;;;;;;4278081;28;20133;-67
2021/09/04 04:50:19;;;;;;;2.47;1.75;;;;;;;;;;4150596;34;20134;-64
2021/09/04 04:52:46;;;;;;;2.80;1.90;;;;;;;;;;4175814;34;20528;-65
2021/09/04 04:55:12;;;;;;;3.33;2.15;;;;;;;;;;4177561;34;20206;-64
2021/09/04 04:57:38;;;;;;;2.58;1.90;;;;;;;;;;4176598;34;20134;-68
2021/09/04 05:00:05;;;;;;;2.45;2.10;;;;;;;;;;4165217;34;20134;-70
2021/09/04 05:02:31;;;;;;;3.92;2.25;;;;;;;;;;4165028;34;20597;-64
2021/09/04 05:05:06;;;;;;;3.08;2.30;;;;;;;;;;4176189;34;20543;-67
2021/09/04 05:07:32;;;;;;;2.90;2.20;;;;;;;;;;4176584;34;20193;-63
2021/09/04 05:09:58;;;;;;;4.95;2.62;;;;;;;;;;4176655;34;20118;-64
2021/09/04 05:12:24;;;;;;;5.47;2.25;;;;;;;;;;4176527;34;20106;-66
2021/09/04 05:14:50;;;;;;;6.22;2.47;;;;;;;;;;4176549;34;20247;-66
2021/09/04 05:17:17;;;;;;;5.10;3.00;;;;;;;;;;4173687;34;20544;-64
2021/09/04 05:19:43;;;;;;;2.45;2.10;;;;;;;;;;4160481;34;20130;-68
2021/09/04 05:22:10;;;;;;;4.47;2.03;;;;;;;;;;4162330;34;20110;-65
2021/09/04 05:24:35;;;;;;;4.60;2.25;;;;;;;;;;4176764;34;20178;-67
2021/09/04 05:27:02;;;;;;;6.95;2.50;;;;;;;;;;4190157;34;20583;-69
2021/09/04 05:29:30;;;;;;;5.95;2.67;;;;;;;;;;4178346;34;20111;-67
2021/09/04 05:31:56;;;;;;;5.43;2.62;;;;;;;;;;4189546;34;20584;-66
2021/09/04 05:34:22;;;;;;;4.12;2.35;;;;;;;;;;4190038;34;20599;-66
2021/09/04 05:36:48;;;;;;;4.37;2.50;;;;;;;;;;4166915;34;20229;-67
2021/09/04 05:39:46;;;;;;;2.72;2.20;;;;;;;;;;4178586;34;20142;-69
2021/09/04 05:42:46;;;;;;;6.30;2.60;;;;;;;;;;4205151;28;20102;-68
2021/09/04 05:45:12;;;;;;;6.00;2.00;;;;;;;;;;4165004;34;20153;-69
2021/09/04 05:47:38;;;;;;;5.45;2.40;;;;;;;;;;4177655;34;20447;-70
2021/09/04 05:50:05;;;;;;;4.75;2.33;;;;;;;;;;4167216;34;20130;-67
2021/09/04 05:52:31;;;;;;;3.75;2.42;;;;;;;;;;4175865;34;20594;-68
2021/09/04 05:54:57;;;;;;;4.05;2.65;;;;;;;;;;4164580;34;20102;-67
2021/09/04 05:57:24;;;;;;;3.62;2.17;;;;;;;;;;4187059;34;20152;-67
2021/09/04 05:59:50;;;;;;;10.50;2.67;;;;;;;;;;4174452;34;20456;-67
2021/09/04 06:02:16;;;;;;;5.03;2.30;;;;;;;;;;4169075;34;20224;-65
2021/09/04 06:04:42;;;;;;;4.15;2.37;;;;;;;;;;4180723;34;20137;-67
2021/09/04 06:07:08;;;;;;;4.53;2.60;;;;;;;;;;4169095;34;20122;-68
2021/09/04 06:09:34;;;;;;;5.37;2.65;;;;;;;;;;4158029;34;20113;-68
2021/09/04 06:12:00;;;;;;;2.47;2.10;;;;;;;;;;4182471;34;20120;-67
2021/09/04 06:14:26;;;;;;;4.03;2.30;;;;;;;;;;4169302;34;20176;-67
2021/09/04 06:16:52;;;;;;;4.53;2.72;;;;;;;;;;4149509;34;20121;-65
2021/09/04 06:19:20;;;;;;;5.25;2.70;;;;;;;;;;4184079;34;20129;-66
2021/09/04 06:21:46;;;;;;;4.65;2.55;;;;;;;;;;4180635;34;20213;-65
2021/09/04 06:24:12;;;;;;;5.80;3.35;;;;;;;;;;4191955;34;20157;-65
2021/09/04 06:26:38;;;;;;;8.75;2.70;;;;;;;;;;4191876;34;20117;-66
2021/09/04 06:29:04;;;;;;;3.47;2.70;;;;;;;;;;4169414;34;20516;-67
2021/09/04 06:32:06;;;;;;;4.03;2.33;;;;;;;;;;4168051;34;20089;-64
2021/09/04 06:34:33;;;;;;;3.87;2.53;;;;;;;;;;4166840;34;20198;-64
2021/09/04 06:36:59;;;;;;;3.75;2.45;;;;;;;;;;4189881;34;20102;-66
2021/09/04 06:39:25;;;;;;;4.62;2.70;;;;;;;;;;4183943;34;20139;-66
2021/09/04 06:41:51;;;;;;;10.77;3.00;;;;;;;;;;4183622;34;20135;-65
2021/09/04 06:44:17;;;;;;;8.20;2.95;;;;;;;;;;4195105;34;20094;-68
2021/09/04 06:46:44;;;;;;;3.40;2.55;;;;;;;;;;4195208;34;20094;-68
2021/09/04 06:49:10;;;;;;;3.87;2.37;;;;;;;;;;4183687;34;20539;-69
2021/09/04 06:51:35;;;;;;;3.97;2.50;;;;;;;;;;4206665;34;20113;-68
2021/09/04 06:54:01;;;;;;;6.35;3.58;;;;;;;;;;4194942;34;20607;-67
2021/09/04 06:56:27;;;;;;;5.75;2.70;;;;;;;;;;4183584;34;20508;-68
2021/09/04 06:58:54;;;;;;;4.40;2.70;;;;;;;;;;4195228;34;20115;-66
2021/09/04 07:01:20;;;;;;;5.03;2.53;;;;;;;;;;4194871;34;20169;-67
2021/09/04 07:03:46;;;;;;;5.10;3.00;;;;;;;;;;4183376;34;20140;-67
2021/09/04 07:06:12;;;;;;;6.22;2.90;;;;;;;;;;4194181;34;20546;-66
2021/09/04 07:08:38;;;;;;;8.30;2.60;;;;;;;;;;4194735;34;20484;-66
2021/09/04 07:11:04;;;;;;;6.50;2.60;;;;;;;;;;4183050;34;20140;-66
2021/09/04 07:13:30;;;;;;;4.95;2.80;;;;;;;;;;4206170;34;20208;-67
2021/09/04 07:16:01;;;;;;;4.62;2.70;;;;;;;;;;4206203;34;20599;-71
2021/09/04 07:18:32;;;;;;;3.55;2.30;;;;;;;;;;4176599;34;20453;-66
2021/09/04 07:21:04;;;;;;;4.37;2.62;;;;;;;;;;4181791;34;20148;-67
2021/09/04 07:23:30;;;;;;;6.95;2.80;;;;;;;;;;4180869;34;20437;-71
2021/09/04 07:25:56;;;;;;;3.87;2.40;;;;;;;;;;4169595;34;20097;-71
2021/09/04 07:28:26;;;;;;;3.67;2.40;;;;;;;;;;4192169;34;20129;-67
2021/09/04 07:30:54;;;;;;;5.75;3.53;;;;;;;;;;4170831;34;20105;-68
2021/09/04 07:34:09;;;;;;;7.22;2.62;;;;;;;;;;4183914;34;20197;-68
2021/09/04 07:37:09;;;;;;;6.90;2.85;;;;;;;;;;4191504;34;20196;-68
2021/09/04 07:39:34;;;;;;;3.75;2.50;;;;;;;;;;4202124;34;20465;-70
2021/09/04 07:42:37;;;;;;;3.35;2.60;;;;;;;;;;4170207;34;20156;-70
2021/09/04 07:45:09;;;;;;;5.87;2.53;;;;;;;;;;4178551;34;20097;-66
2021/09/04 07:47:36;;;;;;;3.17;2.40;;;;;;;;;;4159217;34;20097;-68
2021/09/04 07:50:04;;;;;;;5.68;2.40;;;;;;;;;;4194288;34;20117;-68
2021/09/04 07:53:17;;;;;;;6.10;2.60;;;;;;;;;;4180256;34;20089;-68
2021/09/04 07:56:11;;;;;;;3.50;2.53;;;;;;;;;;4180365;34;20108;-68
2021/09/04 07:58:55;;;;;;;2.42;2.22;;;;;;;;;;4193638;34;20172;-68
2021/09/04 08:01:53;;;;;;;4.00;2.40;;;;;;;;;;4187175;34;20110;-65
2021/09/04 08:04:19;;;;;;;5.87;2.47;;;;;;;;;;4193832;34;20143;-67
2021/09/04 08:06:46;;;;;;;2.60;2.40;;;;;;;;;;4194123;34;20128;-64
2021/09/04 08:09:13;;;;;;;6.20;2.78;;;;;;;;;;4183165;34;20441;-65
2021/09/04 08:11:45;;;;;;;5.85;2.37;;;;;;;;;;4182146;34;20102;-66
2021/09/04 08:14:11;;;;;;;5.75;2.35;;;;;;;;;;4182822;34;20181;-64
2021/09/04 08:16:38;;;;;;;6.20;2.35;;;;;;;;;;4171391;34;20116;-67
2021/09/04 08:19:05;;;;;;;2.78;2.37;;;;;;;;;;4183697;34;20102;-69
2021/09/04 08:21:31;;;;;;;4.40;2.33;;;;;;;;;;4216091;34;20117;-67
2021/09/04 08:23:59;;;;;;;12.57;2.67;;;;;;;;;;4158483;34;20213;-68
2021/09/04 08:26:27;;;;;;;4.03;2.47;;;;;;;;;;4170735;34;20482;-68
2021/09/04 08:28:55;;;;;;;3.35;2.12;;;;;;;;;;4194145;34;20128;-67
2021/09/04 08:31:21;;;;;;;7.78;2.70;;;;;;;;;;4192406;34;20140;-67
2021/09/04 08:33:47;;;;;;;5.12;2.03;;;;;;;;;;4172457;34;20253;-68
2021/09/04 08:36:14;;;;;;;11.52;2.22;;;;;;;;;;4182425;34;20501;-67
2021/09/04 08:38:40;;;;;;;4.35;2.10;;;;;;;;;;4187373;34;20101;-68
2021/09/04 08:41:08;;;;;;;4.05;2.40;;;;;;;;;;4193470;34;20446;-67
2021/09/04 08:43:38;;;;;;;3.37;2.08;;;;;;;;;;4169430;34;20121;-67
2021/09/04 08:46:05;;;;;;;4.12;2.47;;;;;;;;;;4169130;34;20208;-66
2021/09/04 08:48:56;;;;;;;3.00;2.08;;;;;;;;;;4173436;34;20122;-66
2021/09/04 08:51:27;;;;;;;3.28;2.30;;;;;;;;;;4178429;34;20503;-68
2021/09/04 08:53:53;;;;;;;6.65;2.40;;;;;;;;;;4182000;34;20233;-66
2021/09/04 08:56:20;;;;;;;5.45;1.95;;;;;;;;;;4160907;34;20524;-67
2021/09/04 08:58:46;;;;;;;2.62;1.90;;;;;;;;;;4193102;34;20129;-68
2021/09/04 09:01:22;;;;;;;5.43;2.10;;;;;;;;;;4180186;34;20126;-69
2021/09/04 09:03:49;;;;;;;2.12;1.87;;;;;;;;;;4185389;34;20155;-68
2021/09/04 09:06:28;;;;;;;2.83;1.67;;;;;;;;;;4176096;34;20128;-68
2021/09/04 09:08:56;;;;;;;3.40;1.87;;;;;;;;;;4174523;34;20105;-67
2021/09/04 09:11:23;;;;;;;1.65;1.30;;;;;;;;;;4186227;34;20600;-67
2021/09/04 09:13:59;;;;;;;2.83;1.70;;;;;;;;;;4199396;34;20116;-66
2021/09/04 09:16:42;;;;;;;2.55;1.90;;;;;;;;;;4185134;34;20125;-68
2021/09/04 09:19:09;;;;;;;2.53;1.60;;;;;;;;;;4166527;34;20498;-68
2021/09/04 09:21:39;;;;;;;2.12;1.62;;;;;;;;;;4188237;34;20102;-67
2021/09/04 09:24:13;;;;;;;2.15;1.67;;;;;;;;;;4194944;34;20721;-66
2021/09/04 09:26:54;;;;;;;4.78;1.83;;;;;;;;;;4180589;34;20125;-68
2021/09/04 09:29:34;;;;;;;2.78;2.05;;;;;;;;;;4172184;34;20105;-69
2021/09/04 09:32:00;;;;;;;3.15;1.73;;;;;;;;;;4180043;34;20194;-68
2021/09/04 09:34:26;;;;;;;4.47;2.20;;;;;;;;;;4170003;34;20465;-69
2021/09/04 09:37:00;;;;;;;4.10;1.95;;;;;;;;;;4180675;34;20113;-67
2021/09/04 09:39:27;;;;;;;2.05;1.80;;;;;;;;;;4177671;34;20090;-67
2021/09/04 09:41:55;;;;;;;4.45;1.80;;;;;;;;;;4167207;34;20575;-66
2021/09/04 09:44:26;;;;;;;8.75;2.17;;;;;;;;;;4170262;34;20118;-67
2021/09/04 09:46:54;;;;;;;2.90;2.10;;;;;;;;;;4180457;34;20481;-67
2021/09/04 09:49:32;;;;;;;2.72;1.87;;;;;;;;;;4181137;34;20155;-67
2021/09/04 09:52:08;;;;;;;2.33;2.00;;;;;;;;;;4182666;34;20110;-67
2021/09/04 09:54:34;;;;;;;2.00;1.77;;;;;;;;;;4195146;34;20119;-67
2021/09/04 09:57:03;;;;;;;2.67;1.77;;;;;;;;;;4183533;34;20114;-66
2021/09/04 09:59:29;;;;;;;3.05;2.00;;;;;;;;;;4180425;34;20094;-66
2021/09/04 10:01:56;;;;;;;2.70;1.60;;;;;;;;;;4178251;34;20753;-66
2021/09/04 10:04:25;;;;;;;3.17;1.67;;;;;;;;;;4193741;34;20120;-65
2021/09/04 10:06:51;;;;;;;2.25;1.87;;;;;;;;;;4218983;34;20105;-66
2021/09/04 10:09:17;;;;;;;3.60;1.92;;;;;;;;;;4202294;34;20120;-67
2021/09/04 10:11:44;;;;;;;2.30;1.70;;;;;;;;;;4169740;34;20122;-69
2021/09/04 10:14:11;;;;;;;1.87;1.67;;;;;;;;;;4181218;34;20563;-70
2021/09/04 10:16:37;;;;;;;3.58;1.58;;;;;;;;;;4180371;34;20117;-69
2021/09/04 10:19:03;;;;;;;1.85;1.67;;;;;;;;;;4180263;34;20108;-68
2021/09/04 10:21:37;;;;;;;3.20;1.92;;;;;;;;;;4273527;29;21000;-68
2021/09/04 10:24:03;;;;;;;2.20;1.80;;;;;;;;;;4213455;34;20121;-67
2021/09/04 10:26:39;;;;;;;5.12;1.75;;;;;;;;;;4200332;34;20112;-67
2021/09/04 10:29:19;;;;;;;3.78;1.87;;;;;;;;;;4192171;34;20113;-68
2021/09/04 10:31:54;;;;;;;1.67;1.58;;;;;;;;;;4188416;34;20513;-67
2021/09/04 10:34:28;;;;;;;;;;;;;;;;;;4181307;34;20116;-67
2021/09/04 10:37:15;;;;;;;3.42;1.70;;;;;;;;;;4168757;34;19989;-70
2021/09/04 10:39:55;;;;;;;4.07;1.90;;;;;;;;;;4157562;34;20116;-69
2021/09/04 10:42:28;;;;;;;2.03;1.58;;;;;;;;;;4192666;34;20442;-70
2021/09/04 10:45:07;;;;;;;3.40;1.83;;;;;;;;;;4180937;34;20224;-69
2021/09/04 10:47:55;;;;;;;5.35;1.90;;;;;;;;;;4179914;34;20101;-67
2021/09/04 10:50:26;;;;;;;1.75;1.65;;;;;;;;;;4167279;34;20144;-68
2021/09/04 10:53:04;;;;;;;2.67;1.75;;;;;;;;;;4201839;34;20205;-69
2021/09/04 10:55:37;;;;;;;2.17;1.90;;;;;;;;;;4170565;33;20140;-68
2021/09/04 10:58:10;;;;;;;2.78;1.70;;;;;;;;;;4183829;34;20110;-68
2021/09/04 11:00:43;;;;;;;2.87;1.77;;;;;;;;;;4158817;34;20512;-69
2021/09/04 11:03:10;;;;;;;3.58;1.90;;;;;;;;;;4192081;34;20444;-67
2021/09/04 11:05:44;;;;;;;2.37;1.70;;;;;;;;;;4181052;34;20593;-66
2021/09/04 11:08:23;;;;;;;1.60;1.50;;;;;;;;;;4181345;34;20113;-68
2021/09/04 11:11:10;;;;;;;1.77;1.50;;;;;;;;;;4181947;34;20548;-69
2021/09/04 11:13:39;;;;;;;1.50;1.40;;;;;;;;;;4182561;34;20114;-70
2021/09/04 11:16:40;;;;;;;2.62;1.67;;;;;;;;;;4169548;34;20137;-70
2021/09/04 11:19:12;;;;;;;2.05;1.70;;;;;;;;;;4159587;34;20101;-69
2021/09/04 11:21:57;;;;;;;2.62;1.83;;;;;;;;;;4158138;34;20228;-69
2021/09/04 11:24:45;;;;;;;4.10;1.95;;;;;;;;;;4191431;34;20121;-67
2021/09/04 11:27:19;;;;;;;2.05;1.50;;;;;;;;;;4169380;34;20102;-67
2021/09/04 11:29:51;;;;;;;7.37;1.70;;;;;;;;;;4180768;34;20185;-64
2021/09/04 11:32:20;;;;;;;1.77;1.60;;;;;;;;;;4180659;34;20460;-68
2021/09/04 11:34:57;;;;;;;2.87;1.60;;;;;;;;;;4180810;34;20117;-69
2021/09/04 11:37:24;;;;;;;2.28;1.70;;;;;;;;;;4157519;34;20094;-66
2021/09/04 11:39:52;;;;;;;2.05;1.40;;;;;;;;;;4191362;34;20197;-67
2021/09/04 11:42:20;;;;;;;2.05;1.37;;;;;;;;;;4157714;34;20129;-69
2021/09/04 11:44:57;;;;;;;1.45;1.30;;;;;;;;;;4191756;34;20206;-65
2021/09/04 11:47:24;;;;;;;1.77;1.52;;;;;;;;;;4191665;34;20493;-65
2021/09/04 11:49:58;;;;;;;1.48;1.37;;;;;;;;;;4180298;34;20469;-67
2021/09/04 11:52:28;;;;;;;4.78;1.67;;;;;;;;;;4180240;34;20118;-69
2021/09/04 11:58:14;;;;;;;2.92;1.73;;;;;;;;;;4187902;34;20133;-67
2021/09/04 12:00:41;;;;;;;1.83;1.52;;;;;;;;;;4188267;34;20116;-67
2021/09/04 12:03:11;;;;;;;2.22;1.30;;;;;;;;;;4189609;34;20454;-69
2021/09/04 12:05:45;;;;;;;4.62;1.85;;;;;;;;;;4189054;34;20114;-68
2021/09/04 12:08:17;;;;;;;2.57;1.20;;;;;;;;;;4162811;34;20197;-72
2021/09/04 12:10:45;;;;;;;3.75;1.37;;;;;;;;;;4153880;34;20865;-69
2021/09/04 12:13:12;;;;;;;3.03;1.20;;;;;;;;;;4166195;34;20439;-69
2021/09/04 12:15:38;;;;;;;1.80;1.40;;;;;;;;;;4166406;34;20114;-71
2021/09/04 12:18:09;;;;;;;1.73;1.48;;;;;;;;;;4155376;34;20130;-69
2021/09/04 12:20:39;;;;;;;3.35;1.40;;;;;;;;;;4177751;34;20188;-69
2021/09/04 12:23:26;;;;;;;1.30;1.20;;;;;;;;;;4155141;34;20103;-69
2021/09/04 12:26:03;;;;;;;1.45;1.12;;;;;;;;;;4155371;34;20132;-68
2021/09/04 12:28:30;;;;;;;2.20;1.40;;;;;;;;;;4167346;34;20198;-71
2021/09/04 12:31:06;;;;;;;1.50;1.20;;;;;;;;;;4154966;34;20506;-70
2021/09/04 12:33:34;;;;;;;1.42;1.33;;;;;;;;;;4165836;34;20130;-69
2021/09/04 12:36:07;;;;;;;4.87;1.35;;;;;;;;;;4166533;34;20114;-70
2021/09/04 12:38:41;;;;;;;1.50;1.40;;;;;;;;;;4166427;34;20107;-70
2021/09/04 12:41:16;;;;;;;1.45;1.35;;;;;;;;;;4154746;34;20530;-68
2021/09/04 12:43:59;;;;;;;2.25;1.40;;;;;;;;;;4166221;34;20103;-68
2021/09/04 12:46:26;;;;;;;2.40;1.40;;;;;;;;;;4177368;34;20110;-75
2021/09/04 12:48:53;;;;;;;1.42;1.30;;;;;;;;;;4177337;34;20114;-68
2021/09/04 12:51:31;;;;;;;3.10;1.50;;;;;;;;;;4155047;34;20211;-69
2021/09/04 12:54:06;;;;;;;1.58;1.42;;;;;;;;;;4154896;34;20202;-68
2021/09/04 12:56:43;;;;;;;2.15;1.45;;;;;;;;;;4165759;34;20095;-67
2021/09/04 12:59:11;;;;;;;1.50;1.12;;;;;;;;;;4176196;34;20106;-66
2021/09/04 13:01:38;;;;;;;3.58;1.35;;;;;;;;;;4164168;34;20508;-67
2021/09/04 13:04:05;;;;;;;1.42;1.30;;;;;;;;;;4154265;34;20127;-68
2021/09/04 13:07:03;;;;;;;1.25;1.15;;;;;;;;;;4179149;34;20606;-68
2021/09/04 13:09:29;;;;;;;1.23;1.12;;;;;;;;;;4165292;34;20114;-68
2021/09/04 13:11:58;;;;;;;1.52;1.30;;;;;;;;;;4154112;34;20272;-68
2021/09/04 13:14:26;;;;;;;1.40;1.30;;;;;;;;;;4154891;34;20106;-66
2021/09/04 13:16:54;;;;;;;1.35;1.25;;;;;;;;;;4166803;34;20561;-68
2021/09/04 13:19:40;;;;;;;1.35;1.25;;;;;;;;;;4156525;34;20511;-68
2021/09/04 13:22:10;;;;;;;1.10;1.10;;;;;;;;;;4177298;34;20612;-68
2021/09/04 13:24:37;;;;;;;1.50;1.40;;;;;;;;;;4160743;34;20120;-68
2021/09/04 13:27:03;;;;;;;1.90;1.48;;;;;;;;;;4168000;34;20122;-67
2021/09/04 13:29:29;;;;;;;2.05;1.40;;;;;;;;;;4179030;34;20121;-65
2021/09/04 13:31:55;;;;;;;1.45;1.30;;;;;;;;;;4156511;34;20125;-67
2021/09/04 13:34:29;;;;;;;1.85;1.48;;;;;;;;;;4167699;34;20453;-67
2021/09/04 13:37:00;;;;;;;1.90;1.40;;;;;;;;;;4152777;34;20183;-67
2021/09/04 13:39:26;;;;;;;3.40;1.50;;;;;;;;;;4154423;34;20206;-67
2021/09/04 13:41:53;;;;;;;1.92;1.50;;;;;;;;;;4161592;34;20226;-67
2021/09/04 13:44:19;;;;;;;1.52;1.30;;;;;;;;;;4176902;34;20134;-67
2021/09/04 13:46:45;;;;;;;1.30;1.20;;;;;;;;;;4153895;34;20187;-68
2021/09/04 13:49:11;;;;;;;2.25;1.30;;;;;;;;;;4154505;34;20435;-67
2021/09/04 13:51:37;;;;;;;1.50;1.40;;;;;;;;;;4293804;29;20156;-67
2021/09/04 13:54:03;;;;;;;1.60;1.30;;;;;;;;;;4171059;34;20094;-67
2021/09/04 13:56:31;;;;;;;1.40;1.30;;;;;;;;;;4198823;34;20205;-67
2021/09/04 13:59:01;;;;;;;1.45;1.35;;;;;;;;;;4165745;34;20221;-67
2021/09/04 14:01:28;;;;;;;2.10;1.30;;;;;;;;;;4146447;34;20501;-67
2021/09/04 14:03:54;;;;;;;1.37;1.27;;;;;;;;;;4170264;34;20553;-69
2021/09/04 14:06:20;;;;;;;1.70;1.30;;;;;;;;;;4170168;34;20521;-68
2021/09/04 14:08:46;;;;;;;3.87;1.30;;;;;;;;;;4169314;34;20117;-66
2021/09/04 14:11:12;;;;;;;1.42;1.33;;;;;;;;;;4157873;34;20517;-67
2021/09/04 14:13:38;;;;;;;1.77;1.33;;;;;;;;;;4169115;34;20114;-69
2021/09/04 14:16:04;;;;;;;3.97;1.30;;;;;;;;;;4169022;34;20107;-69
2021/09/04 14:18:30;;;;;;;1.60;1.40;;;;;;;;;;4192467;34;20177;-70
2021/09/04 14:20:57;;;;;;;2.83;1.35;;;;;;;;;;4181237;34;20201;-70
2021/09/04 14:23:23;;;;;;;1.40;1.30;;;;;;;;;;4170258;34;20114;-68
2021/09/04 14:25:49;;;;;;;1.77;1.30;;;;;;;;;;4181006;34;20510;-67
2021/09/04 14:28:15;;;;;;;1.35;1.20;;;;;;;;;;4158271;34;20157;-68
2021/09/04 14:30:41;;;;;;;2.08;1.40;;;;;;;;;;4169961;34;20232;-67
2021/09/04 14:33:07;;;;;;;2.37;1.23;;;;;;;;;;4169855;34;20129;-67
2021/09/04 14:35:33;;;;;;;1.60;1.40;;;;;;;;;;4169899;34;20234;-67
2021/09/04 14:38:06;;;;;;;3.33;1.73;;;;;;;;;;4169900;34;20551;-67
2021/09/04 14:40:36;;;;;;;2.95;1.60;;;;;;;;;;4169852;34;20113;-66
2021/09/04 14:43:02;;;;;;;1.60;1.50;;;;;;;;;;4181019;34;20607;-66
2021/09/04 14:45:29;;;;;;;3.53;1.52;;;;;;;;;;4180914;34;20114;-66
2021/09/04 14:47:56;;;;;;;1.73;1.35;;;;;;;;;;4169481;34;20098;-66
2021/09/04 14:50:24;;;;;;;1.52;1.40;;;;;;;;;;4168939;34;20113;-66
2021/09/04 14:52:55;;;;;;;4.75;1.50;;;;;;;;;;4180699;34;20137;-66
2021/09/04 14:55:23;;;;;;;1.75;1.58;;;;;;;;;;4170150;34;20132;-67
2021/09/04 14:57:52;;;;;;;3.60;2.15;;;;;;;;;;4158321;34;20113;-67
2021/09/04 15:03:25;;;;;;;3.37;1.65;;;;;;;;;;4297411;28;20117;-67
2021/09/04 15:05:52;;;;;;;2.05;1.80;;;;;;;;;;4182650;34;20130;-68
2021/09/04 15:08:18;;;;;;;2.25;1.65;;;;;;;;;;4171529;34;20205;-68
2021/09/04 15:11:18;;;;;;;2.12;1.50;;;;;;;;;;4206127;33;20184;-65
2021/09/04 15:14:12;;;;;;;3.12;1.70;;;;;;;;;;4204005;34;20132;-67
2021/09/04 15:16:38;;;;;;;1.98;1.73;;;;;;;;;;4182938;34;20098;-67
2021/09/04 15:19:11;;;;;;;1.65;1.48;;;;;;;;;;4206088;34;20121;-68
2021/09/04 15:21:39;;;;;;;2.23;1.90;;;;;;;;;;4160918;34;20121;-67
2021/09/04 15:24:06;;;;;;;3.72;1.67;;;;;;;;;;4194229;34;20129;-66